Murchison, Texas
Current Conditions -  °F | °C
As of 10:15 PM on Saturday 27 Dec 2014 (Local Time) from KF44 Reporting Station
Overcast Overcast  
Wind Chill: 27°   Ceiling: 2000
Heat Index: 36°   Visibility: 10mi
Dew Point: 32°   Wind: 13mph
Humidity: 87%   Direction: 360°N
Pressure: 30.27"   Gusts: 16mph
Location:  32.28°N, 95.75°W
Report Text: KF44 280415Z AUTO 36011G14KT 10SM OVC020 02/00 A3027 RMK AO2
Loading
Personal Weather Stations






























Interactive Weather Map New forecast layout! Learn more

10-Day Weather Forecast

Advertisements
Track Severe Weather on mobile